Decoded Metar for OIBB (BUSHEHR in IRAN) (IATA:BUZ) | Meteo·Mobile Aviation Weather
aviador You're here:

OIBB Decoded Metar

BUSHEHR in IRAN
Report Time2019-05-26 16:50:00
UTC Time2019-05-26 17:33:14
Flight Rules vfr VFR
WindCalm
Visibility9999 m
Phenomena:N/A
Clouds:N/A
Expected CloudBase > 5,200 ft AGL from Temp-Dew spread
CeilingNone
Temp31°C (ISA +16)
Dew Point18°C (46% RH)
Heat Index31.9°C
QNH1006 hPa
Density Alt2,415 ft
Elevation62 ft
Report Wrong Elevation
Raw Report
OIBB 261650Z 00000KT CAVOK 31/18 Q1006 A2971=

Extra information for OIBB:More info

Metar Taf Metar & Taf Last 4 Metars F.Rules Stats Wind Profile Meteogram Temp Stats Airport Information Weather charts Add Link Nearby VenuesMetar ALERT Operation Metar Decoded Social comments